createdAt,value
2019-02-28T00:02:12.794Z,97732.43
2019-02-28T00:04:42.721Z,97732.43
2019-02-28T00:07:17.570Z,97738.89
2019-02-28T00:09:44.113Z,97734.88
2019-02-28T00:12:16.823Z,97731.35
2019-02-28T00:14:46.583Z,97730.61
2019-02-28T00:17:16.170Z,97730.61
2019-02-28T00:19:45.913Z,97733.66
2019-02-28T00:22:16.383Z,97730.02
2019-02-28T00:24:46.074Z,97730.02
2019-02-28T00:27:20.926Z,97725.01
2019-02-28T00:29:47.189Z,97723.19
2019-02-28T00:32:16.877Z,97723.19
2019-02-28T00:34:46.930Z,97720.00
2019-02-28T00:37:20.253Z,97714.87
2019-02-28T00:39:50.291Z,97712.91
2019-02-28T00:42:20.214Z,97709.88
2019-02-28T00:44:50.562Z,97710.02
2019-02-28T00:47:20.292Z,97710.02
2019-02-28T00:49:49.985Z,97705.12
2019-02-28T00:52:20.297Z,97705.12
2019-02-28T00:54:50.488Z,97701.58
2019-02-28T00:57:23.661Z,97698.61
2019-02-28T00:59:52.299Z,97698.61
2019-02-28T01:02:22.035Z,97693.52
2019-02-28T01:04:51.918Z,97692.45
2019-02-28T01:07:22.319Z,97685.14
2019-02-28T01:09:51.983Z,97685.47
2019-02-28T01:12:22.001Z,97688.24
2019-02-28T01:14:51.902Z,97686.16
2019-02-28T01:17:24.116Z,97689.83
2019-02-28T01:19:54.668Z,97685.67
2019-02-28T01:22:42.101Z,97683.58
2019-02-28T01:25:12.921Z,97691.42
2019-02-28T01:27:42.751Z,97681.81
2019-02-28T01:30:12.800Z,97681.81
2019-02-28T01:32:42.631Z,97672.94
2019-02-28T01:35:12.295Z,97669.40
2019-02-28T01:37:42.457Z,97669.40
2019-02-28T01:40:12.298Z,97664.91
2019-02-28T01:42:42.227Z,97651.98
2019-02-28T01:45:11.976Z,97653.48
2019-02-28T01:47:46.044Z,97649.70
2019-02-28T01:50:13.636Z,97650.17
2019-02-28T01:52:46.177Z,97650.17
2019-02-28T01:55:16.023Z,97640.39
2019-02-28T01:57:45.916Z,97638.84
2019-02-28T02:00:16.071Z,97638.84
2019-02-28T02:02:47.066Z,97637.89
2019-02-28T02:05:17.964Z,97639.20
2019-02-28T02:07:48.010Z,97629.20
2019-02-28T02:10:22.676Z,97629.20
2019-02-28T02:12:52.439Z,97630.19
2019-02-28T02:15:22.790Z,97623.50
2019-02-28T02:17:52.550Z,97621.73
2019-02-28T02:20:23.490Z,97621.73
2019-02-28T02:22:54.526Z,97620.53
2019-02-28T02:25:24.339Z,97624.72
2019-02-28T02:27:54.150Z,97613.44
2019-02-28T02:30:24.159Z,97613.44
2019-02-28T02:32:53.891Z,97610.06
2019-02-28T02:35:23.633Z,97603.13
2019-02-28T02:37:53.325Z,97602.35
2019-02-28T02:40:24.207Z,97602.35
2019-02-28T02:42:54.040Z,97589.75
2019-02-28T02:45:23.906Z,97592.17
2019-02-28T02:47:56.317Z,97586.47
2019-02-28T02:50:34.521Z,97587.72
2019-02-28T02:53:04.873Z,97580.55
2019-02-28T02:55:29.438Z,97580.55
2019-02-28T02:57:59.339Z,97568.39
2019-02-28T03:00:29.078Z,97568.39
2019-02-28T03:02:58.895Z,97554.13
2019-02-28T03:05:35.217Z,97555.29
2019-02-28T03:08:01.118Z,97555.29
2019-02-28T03:10:33.304Z,97553.83
2019-02-28T03:13:04.784Z,97540.88
2019-02-28T03:15:35.720Z,97538.22
2019-02-28T03:18:05.307Z,97539.76
2019-02-28T03:20:35.298Z,97539.76
2019-02-28T03:23:05.250Z,97541.85
2019-02-28T03:25:35.243Z,97540.86
2019-02-28T03:28:05.076Z,97539.91
2019-02-28T03:30:36.366Z,97541.14
2019-02-28T03:33:06.747Z,97541.14
2019-02-28T03:35:43.560Z,97545.34
2019-02-28T03:38:11.287Z,97542.67
2019-02-28T03:40:41.290Z,97542.67
2019-02-28T03:43:11.135Z,97541.27
2019-02-28T03:45:40.819Z,97545.50
2019-02-28T03:48:10.610Z,97542.47
2019-02-28T03:50:41.466Z,97546.87
2019-02-28T03:53:11.319Z,97550.73
2019-02-28T03:55:44.083Z,97546.87
2019-02-28T03:58:14.021Z,97546.87
2019-02-28T04:00:43.801Z,97544.61
2019-02-28T04:03:13.999Z,97545.15
2019-02-28T04:05:43.650Z,97547.16
2019-02-28T04:08:13.338Z,97547.16
2019-02-28T04:10:44.790Z,97550.97
2019-02-28T04:13:14.344Z,97537.42
2019-02-28T04:16:01.429Z,97549.70
2019-02-28T04:18:16.522Z,97550.08
2019-02-28T04:20:46.094Z,97550.08
2019-02-28T04:23:16.318Z,97545.28
2019-02-28T04:25:45.948Z,97534.84
2019-02-28T04:28:18.624Z,97532.09
2019-02-28T04:30:47.315Z,97536.89
2019-02-28T04:33:17.510Z,97532.63
2019-02-28T04:35:47.411Z,97532.63
2019-02-28T04:38:20.463Z,97532.42
2019-02-28T04:40:48.585Z,97533.38
2019-02-28T04:43:20.012Z,97533.38
2019-02-28T04:45:49.818Z,97529.30
2019-02-28T04:48:19.622Z,97529.30
2019-02-28T04:50:50.986Z,97523.36
2019-02-28T04:53:20.673Z,97525.31
2019-02-28T04:55:50.340Z,97519.42
2019-02-28T04:58:22.430Z,97518.67
2019-02-28T05:00:51.594Z,97515.02
2019-02-28T05:03:21.203Z,97513.88
2019-02-28T05:05:50.902Z,97513.88
2019-02-28T05:08:20.466Z,97519.62
2019-02-28T05:10:50.246Z,97521.63
2019-02-28T05:13:20.488Z,97521.63
2019-02-28T05:15:50.330Z,97523.28
2019-02-28T05:18:19.966Z,97519.62
2019-02-28T05:20:49.651Z,97520.77
2019-02-28T05:23:19.586Z,97520.77
2019-02-28T05:25:52.077Z,97521.30
2019-02-28T05:28:21.496Z,97528.12
2019-02-28T05:30:53.729Z,97524.86
2019-02-28T05:33:23.025Z,97524.86
2019-02-28T05:35:52.777Z,97528.89
2019-02-28T05:38:22.785Z,97528.89
2019-02-28T05:40:55.510Z,97523.30
2019-02-28T05:43:25.380Z,97523.30
2019-02-28T05:45:55.211Z,97515.93
2019-02-28T05:48:24.939Z,97517.98
2019-02-28T05:50:57.582Z,97515.83
2019-02-28T05:53:27.241Z,97510.77
2019-02-28T05:55:59.717Z,97505.77
2019-02-28T05:58:28.655Z,97505.77
2019-02-28T06:00:58.557Z,97498.66
2019-02-28T06:03:35.960Z,97508.66
2019-02-28T06:06:09.734Z,97502.41
2019-02-28T06:08:41.478Z,97502.41
2019-02-28T06:11:11.152Z,97508.28
2019-02-28T06:13:40.787Z,97512.75
2019-02-28T06:16:16.824Z,97511.47
2019-02-28T06:18:47.115Z,97510.52
2019-02-28T06:21:19.320Z,97511.14
2019-02-28T06:23:49.104Z,97512.38
2019-02-28T06:26:19.188Z,97513.03
2019-02-28T06:28:49.522Z,97513.03
2019-02-28T06:31:18.994Z,97514.08
2019-02-28T06:33:48.774Z,97517.63
2019-02-28T06:36:21.064Z,97517.63
2019-02-28T06:38:54.565Z,97500.70
2019-02-28T06:41:23.178Z,97500.70
2019-02-28T06:43:53.900Z,97505.20
2019-02-28T06:46:23.589Z,97500.21
2019-02-28T06:48:53.631Z,97500.21
2019-02-28T06:51:24.258Z,97507.25
2019-02-28T06:53:54.068Z,97510.84
2019-02-28T06:56:23.988Z,97499.03
2019-02-28T06:58:55.181Z,97497.41
2019-02-28T07:01:26.677Z,97496.93
2019-02-28T07:03:56.739Z,97496.93
2019-02-28T07:06:26.783Z,97493.26
2019-02-28T07:09:02.537Z,97514.44
2019-02-28T07:11:32.610Z,97503.47
2019-02-28T07:14:02.431Z,97508.01
2019-02-28T07:16:34.517Z,97508.01
2019-02-28T07:19:08.170Z,97518.41
2019-02-28T07:21:42.998Z,97518.41
2019-02-28T07:24:09.381Z,97513.37
2019-02-28T07:26:39.449Z,97504.27
2019-02-28T07:29:14.192Z,97517.41
2019-02-28T07:31:43.791Z,97517.41
2019-02-28T07:34:19.622Z,97510.26
2019-02-28T07:36:45.846Z,97510.88
2019-02-28T07:39:16.082Z,97510.88
2019-02-28T07:41:49.129Z,97516.77
2019-02-28T07:44:22.193Z,97513.59
2019-02-28T07:46:51.147Z,97506.19
2019-02-28T07:49:20.999Z,97500.55
2019-02-28T07:51:50.778Z,97498.09
2019-02-28T07:54:26.845Z,97497.53
2019-02-28T07:56:56.650Z,97497.53
2019-02-28T07:59:26.243Z,97493.83
2019-02-28T08:01:55.983Z,97488.77
2019-02-28T08:04:25.556Z,97488.77
2019-02-28T08:06:57.386Z,97492.27
2019-02-28T08:09:32.763Z,97492.27
2019-02-28T08:12:02.721Z,97483.98
2019-02-28T08:14:34.386Z,97485.47
2019-02-28T08:17:05.427Z,97486.59
2019-02-28T08:19:35.648Z,97486.59
2019-02-28T08:22:08.057Z,97490.98
2019-02-28T08:24:38.191Z,97491.99
2019-02-28T08:27:09.735Z,97491.99
2019-02-28T08:29:44.758Z,97498.60
2019-02-28T08:32:11.727Z,97497.53
2019-02-28T08:34:41.307Z,97497.53
2019-02-28T08:37:14.246Z,97487.61
2019-02-28T08:39:44.255Z,97500.69
2019-02-28T08:42:13.942Z,97500.69
2019-02-28T08:44:47.999Z,97485.00
2019-02-28T08:47:17.780Z,97484.88
2019-02-28T08:49:52.635Z,97483.45
2019-02-28T08:52:22.191Z,97482.36
2019-02-28T08:54:51.882Z,97482.36
2019-02-28T08:57:22.034Z,97485.53
2019-02-28T08:59:57.199Z,97475.44
2019-02-28T09:02:27.140Z,97475.44
2019-02-28T09:04:59.364Z,97473.64
2019-02-28T09:07:29.199Z,97477.76
2019-02-28T09:09:59.276Z,97473.95
2019-02-28T09:12:29.864Z,97470.66
2019-02-28T09:15:07.785Z,97470.66
2019-02-28T09:17:38.694Z,97463.50
2019-02-28T09:20:10.566Z,97466.42
2019-02-28T09:22:40.147Z,97466.42
2019-02-28T09:25:11.959Z,97479.69
2019-02-28T09:27:42.147Z,97469.83
2019-02-28T09:30:17.928Z,97469.83
2019-02-28T09:32:48.182Z,97473.41
2019-02-28T09:35:19.387Z,97475.00
2019-02-28T09:37:49.331Z,97475.00
2019-02-28T09:40:19.094Z,97479.22
2019-02-28T09:42:51.161Z,97475.63
2019-02-28T09:45:20.646Z,97458.31
2019-02-28T09:47:50.184Z,97444.05
2019-02-28T09:50:22.452Z,97445.16
2019-02-28T09:52:51.965Z,97445.16
2019-02-28T09:55:24.242Z,97439.62
2019-02-28T09:57:54.942Z,97439.62
2019-02-28T10:00:27.939Z,97433.27
2019-02-28T10:02:58.544Z,97432.23
2019-02-28T10:05:28.088Z,97428.18
2019-02-28T10:08:01.543Z,97425.19
2019-02-28T10:10:29.062Z,97425.19
2019-02-28T10:12:58.928Z,97424.37
2019-02-28T10:15:28.718Z,97427.89
2019-02-28T10:18:00.759Z,97438.16
2019-02-28T10:20:30.682Z,97446.49
2019-02-28T10:23:00.196Z,97436.12
2019-02-28T10:25:29.730Z,97436.12
2019-02-28T10:28:02.554Z,97430.88
2019-02-28T10:30:32.754Z,97436.19
2019-02-28T10:33:02.895Z,97439.38
2019-02-28T10:35:33.427Z,97435.27
2019-02-28T10:38:04.993Z,97435.27
2019-02-28T10:40:34.775Z,97434.16
2019-02-28T10:43:04.255Z,97434.16
2019-02-28T10:45:34.149Z,97428.38
2019-02-28T10:48:04.110Z,97428.38
2019-02-28T10:50:33.898Z,97437.88
2019-02-28T10:53:05.435Z,97430.12
2019-02-28T10:55:34.710Z,97440.49
2019-02-28T10:58:04.559Z,97440.49
2019-02-28T11:00:35.735Z,97440.01
2019-02-28T11:03:05.355Z,97440.77
2019-02-28T11:05:35.229Z,97440.77
2019-02-28T11:08:06.125Z,97444.88
2019-02-28T11:10:37.648Z,97446.13
2019-02-28T11:13:10.151Z,97447.17
2019-02-28T11:15:41.004Z,97452.90
2019-02-28T11:18:14.103Z,97452.90
2019-02-28T11:20:43.769Z,97438.97
2019-02-28T11:23:14.959Z,97447.53
2019-02-28T11:25:45.519Z,97439.67
2019-02-28T11:28:15.988Z,97446.11
2019-02-28T11:30:46.170Z,97443.89
2019-02-28T11:33:17.450Z,97443.89
2019-02-28T11:35:46.926Z,97445.02
2019-02-28T11:38:20.357Z,97443.01
2019-02-28T11:40:54.708Z,97443.01
2019-02-28T11:43:20.140Z,97436.70
2019-02-28T11:45:50.005Z,97436.28
2019-02-28T11:48:20.682Z,97436.28
2019-02-28T11:50:50.292Z,97433.03
2019-02-28T11:53:19.722Z,97427.42
2019-02-28T11:55:53.263Z,97426.30
2019-02-28T11:58:21.753Z,97426.30
2019-02-28T12:00:51.267Z,97420.40
2019-02-28T12:05:49.925Z,97418.73
2019-02-28T12:08:16.303Z,97418.73
2019-02-28T12:10:46.010Z,97396.34
2019-02-28T12:13:19.652Z,97395.68
2019-02-28T12:15:57.567Z,97395.68
2019-02-28T12:18:27.303Z,97401.08
2019-02-28T12:20:58.587Z,97406.59
2019-02-28T12:23:29.474Z,97411.03
2019-02-28T12:26:01.676Z,97405.01
2019-02-28T12:28:31.425Z,97408.95
2019-02-28T12:31:01.121Z,97404.06
2019-02-28T12:33:30.834Z,97404.06
2019-02-28T12:36:00.351Z,97410.77
2019-02-28T12:38:33.197Z,97419.08
2019-02-28T12:41:02.708Z,97420.91
2019-02-28T12:43:32.303Z,97423.52
2019-02-28T12:46:02.148Z,97423.52
2019-02-28T12:48:32.318Z,97411.39
2019-02-28T12:51:05.324Z,97410.89
2019-02-28T12:53:33.791Z,97411.05
2019-02-28T12:56:03.486Z,97411.45
2019-02-28T12:58:38.750Z,97407.52
2019-02-28T13:01:05.029Z,97407.52
2019-02-28T13:03:34.562Z,97407.75
2019-02-28T13:06:04.525Z,97407.75
2019-02-28T13:08:34.206Z,97406.27
2019-02-28T13:11:04.717Z,97414.65
2019-02-28T13:13:37.316Z,97411.38
2019-02-28T13:16:06.939Z,97417.30
2019-02-28T13:18:39.507Z,97418.84
2019-02-28T13:21:11.653Z,97418.84
2019-02-28T13:23:41.477Z,97423.45
2019-02-28T13:26:11.029Z,97423.45
2019-02-28T13:28:41.684Z,97411.24
2019-02-28T13:31:11.333Z,97411.86
2019-02-28T13:33:41.355Z,97411.77
2019-02-28T13:36:12.985Z,97411.77
2019-02-28T13:38:42.623Z,97402.18
2019-02-28T13:41:15.714Z,97411.83
2019-02-28T13:43:43.869Z,97414.34
2019-02-28T13:46:13.882Z,97407.52
2019-02-28T13:48:44.158Z,97405.59
2019-02-28T13:51:13.659Z,97402.91
2019-02-28T13:53:46.999Z,97402.91
2019-02-28T13:56:18.033Z,97396.84
2019-02-28T13:58:49.179Z,97409.59
2019-02-28T14:01:20.252Z,97409.59
2019-02-28T14:03:52.453Z,97412.98
2019-02-28T14:06:22.571Z,97414.83
2019-02-28T14:08:56.326Z,97412.02
2019-02-28T14:11:26.198Z,97423.45
2019-02-28T14:14:01.095Z,97423.78
2019-02-28T14:16:33.319Z,97429.06
2019-02-28T14:19:03.012Z,97429.06
2019-02-28T14:21:34.399Z,97426.74
2019-02-28T14:24:04.514Z,97426.74
2019-02-28T14:26:42.593Z,97440.27
2019-02-28T14:29:10.730Z,97453.14
2019-02-28T14:31:39.752Z,97450.91
2019-02-28T14:34:10.216Z,97450.91
2019-02-28T14:36:45.172Z,97456.67
2019-02-28T14:39:16.133Z,97471.57
2019-02-28T14:41:46.506Z,97471.45
2019-02-28T14:44:19.619Z,97469.63
2019-02-28T14:46:49.777Z,97463.58
2019-02-28T14:49:20.668Z,97463.58
2019-02-28T14:51:53.625Z,97459.02
2019-02-28T14:54:24.761Z,97456.97
2019-02-28T14:56:55.070Z,97456.97
2019-02-28T14:59:24.600Z,97451.06
2019-02-28T15:02:00.175Z,97453.59
2019-02-28T15:07:06.860Z,97448.32
2019-02-28T15:09:36.822Z,97459.09
2019-02-28T15:12:06.442Z,97459.09
2019-02-28T15:14:36.116Z,97455.13
2019-02-28T15:17:07.551Z,97449.12
2019-02-28T15:19:38.023Z,97449.12
2019-02-28T15:22:10.906Z,97450.26
2019-02-28T15:24:44.480Z,97451.38
2019-02-28T15:27:14.401Z,97451.38
2019-02-28T15:29:45.324Z,97452.52
2019-02-28T15:32:17.238Z,97439.56
2019-02-28T15:34:47.143Z,97446.36
2019-02-28T15:37:17.160Z,97446.36
2019-02-28T15:39:49.816Z,97444.73
2019-02-28T15:42:18.480Z,97437.50
2019-02-28T15:44:48.640Z,97433.30
2019-02-28T15:47:19.430Z,97426.97
2019-02-28T15:49:49.402Z,97426.97
2019-02-28T15:52:21.323Z,97429.39
2019-02-28T15:54:51.013Z,97424.95
2019-02-28T15:57:20.750Z,97428.86
2019-02-28T15:59:50.777Z,97428.86
2019-02-28T16:02:20.419Z,97429.69
2019-02-28T16:04:51.014Z,97434.94
2019-02-28T16:07:20.794Z,97431.81
2019-02-28T16:09:54.089Z,97430.79
2019-02-28T16:12:23.532Z,97424.14
2019-02-28T16:14:55.558Z,97427.56
2019-02-28T16:17:25.070Z,97418.95
2019-02-28T16:19:56.244Z,97418.95
2019-02-28T16:22:25.895Z,97409.77
2019-02-28T16:24:56.889Z,97413.96
2019-02-28T16:27:29.621Z,97407.78
2019-02-28T16:29:57.620Z,97402.13
2019-02-28T16:32:27.272Z,97402.13
2019-02-28T16:34:57.539Z,97403.24
2019-02-28T16:37:28.250Z,97399.00
2019-02-28T16:39:57.724Z,97398.48
2019-02-28T16:42:27.249Z,97401.63
2019-02-28T16:44:56.864Z,97389.03
2019-02-28T16:47:28.140Z,97380.86
2019-02-28T16:50:00.243Z,97379.40
2019-02-28T16:52:30.174Z,97379.40
2019-02-28T16:55:01.432Z,97383.08
2019-02-28T16:57:32.192Z,97388.17
2019-02-28T17:00:04.046Z,97394.91
2019-02-28T17:02:33.130Z,97396.57
2019-02-28T17:05:02.888Z,97385.31
2019-02-28T17:07:32.671Z,97381.25
2019-02-28T17:10:04.530Z,97381.25
2019-02-28T17:12:42.991Z,97384.68
2019-02-28T17:15:19.566Z,97385.34
2019-02-28T17:17:58.375Z,97387.08
2019-02-28T17:20:27.904Z,97385.20
2019-02-28T17:23:01.383Z,97378.34
2019-02-28T17:25:30.385Z,97379.85
2019-02-28T17:28:18.792Z,97378.09
2019-02-28T17:31:08.385Z,97368.62
2019-02-28T17:33:37.370Z,97368.62
2019-02-28T17:36:08.391Z,97378.23
2019-02-28T17:38:38.513Z,97378.23
2019-02-28T17:41:08.236Z,97388.13
2019-02-28T17:43:43.351Z,97388.13
2019-02-28T17:46:13.122Z,97379.16
2019-02-28T17:49:16.539Z,97377.56
2019-02-28T17:51:55.444Z,97377.56
2019-02-28T17:55:14.810Z,97375.42
2019-02-28T17:58:08.901Z,97377.56
2019-02-28T18:01:21.365Z,97377.56
2019-02-28T18:04:17.100Z,97387.91
2019-02-28T18:07:26.602Z,97387.91
2019-02-28T18:10:12.673Z,97376.72
2019-02-28T18:13:16.222Z,97384.09
2019-02-28T18:16:06.103Z,97376.12
2019-02-28T18:19:18.184Z,97372.91
2019-02-28T18:22:29.435Z,97370.87
2019-02-28T18:25:32.444Z,97377.09
2019-02-28T18:28:58.096Z,97377.09
2019-02-28T18:31:27.147Z,97375.81
2019-02-28T18:34:03.648Z,97366.48
2019-02-28T18:36:36.217Z,97366.54
2019-02-28T18:39:11.580Z,97366.12
2019-02-28T18:41:42.222Z,97366.12
2019-02-28T18:44:18.299Z,97356.50
2019-02-28T18:46:50.404Z,97356.50
2019-02-28T18:49:20.458Z,97351.72
2019-02-28T18:51:50.346Z,97350.87
2019-02-28T18:54:19.802Z,97353.05
2019-02-28T18:56:50.013Z,97351.53
2019-02-28T18:59:23.644Z,97346.37
2019-02-28T19:01:53.200Z,97343.44
2019-02-28T19:04:23.010Z,97340.27
2019-02-28T19:06:52.627Z,97335.89
2019-02-28T19:09:27.751Z,97335.89
2019-02-28T19:11:57.302Z,97332.75
2019-02-28T19:14:29.179Z,97332.75
2019-02-28T19:16:58.960Z,97323.08
2019-02-28T19:19:28.646Z,97321.73
2019-02-28T19:22:05.974Z,97321.73
2019-02-28T19:24:35.660Z,97329.50
2019-02-28T19:27:08.473Z,97318.02
2019-02-28T19:29:41.291Z,97314.69
2019-02-28T19:32:14.155Z,97316.58
2019-02-28T19:34:45.961Z,97316.58
2019-02-28T19:37:15.560Z,97316.39
2019-02-28T19:39:45.315Z,97316.39
2019-02-28T19:42:15.173Z,97312.13
2019-02-28T19:44:44.935Z,97309.89
2019-02-28T19:47:14.460Z,97315.47
2019-02-28T19:49:45.481Z,97317.48
2019-02-28T19:52:15.434Z,97317.48
2019-02-28T19:54:48.016Z,97313.89
2019-02-28T19:57:17.923Z,97313.89
2019-02-28T19:59:47.407Z,97311.04
2019-02-28T20:02:17.439Z,97314.98
2019-02-28T20:04:50.406Z,97314.98
2019-02-28T20:07:20.321Z,97313.97
2019-02-28T20:09:55.803Z,97308.48
2019-02-28T20:12:25.589Z,97308.48
2019-02-28T20:14:55.136Z,97305.39
2019-02-28T20:17:25.128Z,97312.73
2019-02-28T20:19:54.975Z,97312.73
2019-02-28T20:22:24.907Z,97308.77
2019-02-28T20:24:59.022Z,97306.11
2019-02-28T20:27:28.781Z,97301.02
2019-02-28T20:29:58.563Z,97301.02
2019-02-28T20:32:28.497Z,97293.42
2019-02-28T20:34:58.350Z,97293.42
2019-02-28T20:37:28.630Z,97289.03
2019-02-28T20:39:58.258Z,97295.59
2019-02-28T20:42:28.334Z,97290.30
2019-02-28T20:44:58.316Z,97290.30
2019-02-28T20:47:28.384Z,97287.13
2019-02-28T20:50:00.508Z,97281.44
2019-02-28T20:52:33.436Z,97277.53
2019-02-28T20:55:06.246Z,97282.20
2019-02-28T20:57:36.666Z,97282.20
2019-02-28T21:00:07.644Z,97279.08
2019-02-28T21:02:37.434Z,97278.55
2019-02-28T21:05:07.228Z,97278.55
2019-02-28T21:07:38.040Z,97271.83
2019-02-28T21:10:09.630Z,97271.83
2019-02-28T21:12:39.618Z,97272.75
2019-02-28T21:15:12.090Z,97268.48
2019-02-28T21:17:49.853Z,97269.84
2019-02-28T21:20:19.953Z,97265.89
2019-02-28T21:22:49.848Z,97269.77
2019-02-28T21:25:21.267Z,97269.77
2019-02-28T21:27:51.048Z,97258.59
2019-02-28T21:30:23.291Z,97258.53
2019-02-28T21:32:52.980Z,97258.53
2019-02-28T21:35:26.475Z,97255.79
2019-02-28T21:37:55.954Z,97255.47
2019-02-28T21:40:25.978Z,97256.53
2019-02-28T21:42:59.994Z,97254.75
2019-02-28T21:45:33.642Z,97254.75
2019-02-28T21:48:05.164Z,97249.48
2019-02-28T21:50:35.788Z,97249.48
2019-02-28T21:53:06.197Z,97250.58
2019-02-28T21:55:36.229Z,97260.65
2019-02-28T21:58:06.170Z,97260.65
2019-02-28T22:00:36.138Z,97251.48
2019-02-28T22:03:06.171Z,97245.84
2019-02-28T22:05:36.418Z,97247.95
2019-02-28T22:08:06.566Z,97237.91
2019-02-28T22:10:36.507Z,97237.91
2019-02-28T22:13:06.279Z,97229.85
2019-02-28T22:15:36.153Z,97231.19
2019-02-28T22:18:06.102Z,97219.31
2019-02-28T22:20:36.807Z,97219.31
2019-02-28T22:23:06.898Z,97229.80
2019-02-28T22:25:37.000Z,97219.55
2019-02-28T22:28:07.677Z,97219.55
2019-02-28T22:30:57.417Z,97222.20
2019-02-28T22:33:46.524Z,97219.34
2019-02-28T22:36:18.793Z,97216.23
2019-02-28T22:38:48.513Z,97213.70
2019-02-28T22:41:18.153Z,97213.70
2019-02-28T22:43:50.760Z,97204.81
2019-02-28T22:46:20.301Z,97202.75
2019-02-28T22:48:50.157Z,97187.59
2019-02-28T22:51:22.101Z,97203.17
2019-02-28T22:53:51.972Z,97189.84
2019-02-28T22:56:22.185Z,97192.48
2019-02-28T22:58:51.984Z,97192.48
2019-02-28T23:01:22.615Z,97191.15
2019-02-28T23:03:52.460Z,97183.77
2019-02-28T23:06:22.425Z,97181.87
2019-02-28T23:08:52.134Z,97181.87
2019-02-28T23:11:21.993Z,97177.27
2019-02-28T23:13:52.301Z,97175.62
2019-02-28T23:16:24.446Z,97173.73
2019-02-28T23:18:54.164Z,97167.00
2019-02-28T23:21:23.910Z,97167.00
2019-02-28T23:23:54.795Z,97151.58
2019-02-28T23:26:28.037Z,97155.53
2019-02-28T23:29:08.545Z,97151.05
2019-02-28T23:32:19.118Z,97154.25
2019-02-28T23:34:51.964Z,97151.47
2019-02-28T23:37:21.731Z,97148.61
2019-02-28T23:39:51.467Z,97151.03
2019-02-28T23:42:24.134Z,97151.03
2019-02-28T23:44:53.879Z,97157.34
2019-02-28T23:47:23.590Z,97146.84
2019-02-28T23:49:53.603Z,97143.14
2019-02-28T23:52:23.319Z,97143.14
2019-02-28T23:54:53.953Z,97135.37
2019-02-28T23:57:23.861Z,97141.06
2019-02-28T23:59:53.592Z,97128.01
